sensor_id;sensor_type;location;lat;lon;timestamp;P1;durP1;ratioP1;P2;durP2;ratioP2
49460;SDS011;35355;49.198;-0.368;2024-01-16T00:01:15;28.17;;;15.32;;
49460;SDS011;35355;49.198;-0.368;2024-01-16T00:03:43;32.25;;;15.60;;
49460;SDS011;35355;49.198;-0.368;2024-01-16T00:06:09;30.75;;;16.13;;
49460;SDS011;35355;49.198;-0.368;2024-01-16T00:08:40;33.58;;;15.48;;
49460;SDS011;35355;49.198;-0.368;2024-01-16T00:11:05;29.58;;;15.30;;
49460;SDS011;35355;49.198;-0.368;2024-01-16T00:13:32;25.20;;;14.70;;
49460;SDS011;35355;49.198;-0.368;2024-01-16T00:15:58;33.65;;;15.20;;
49460;SDS011;35355;49.198;-0.368;2024-01-16T00:18:26;28.77;;;15.55;;
49460;SDS011;35355;49.198;-0.368;2024-01-16T00:20:55;30.08;;;14.88;;
49460;SDS011;35355;49.198;-0.368;2024-01-16T00:23:30;28.27;;;13.35;;
49460;SDS011;35355;49.198;-0.368;2024-01-16T00:26:05;34.67;;;15.05;;
49460;SDS011;35355;49.198;-0.368;2024-01-16T00:28:31;29.35;;;14.93;;
49460;SDS011;35355;49.198;-0.368;2024-01-16T00:31:03;28.08;;;13.85;;
49460;SDS011;35355;49.198;-0.368;2024-01-16T00:33:36;26.67;;;13.60;;
49460;SDS011;35355;49.198;-0.368;2024-01-16T00:36:05;25.48;;;13.05;;
49460;SDS011;35355;49.198;-0.368;2024-01-16T00:38:34;23.35;;;12.20;;
49460;SDS011;35355;49.198;-0.368;2024-01-16T00:41:00;29.67;;;12.73;;
49460;SDS011;35355;49.198;-0.368;2024-01-16T00:43:28;26.05;;;12.77;;
49460;SDS011;35355;49.198;-0.368;2024-01-16T00:45:54;24.42;;;12.27;;
49460;SDS011;35355;49.198;-0.368;2024-01-16T00:48:23;26.70;;;12.30;;
49460;SDS011;35355;49.198;-0.368;2024-01-16T00:50:52;33.08;;;11.93;;
49460;SDS011;35355;49.198;-0.368;2024-01-16T00:53:20;21.20;;;10.88;;
49460;SDS011;35355;49.198;-0.368;2024-01-16T00:55:45;26.00;;;12.23;;
49460;SDS011;35355;49.198;-0.368;2024-01-16T00:58:17;20.85;;;11.63;;
49460;SDS011;35355;49.198;-0.368;2024-01-16T01:00:43;24.67;;;11.10;;
49460;SDS011;35355;49.198;-0.368;2024-01-16T01:03:09;26.55;;;12.45;;
49460;SDS011;35355;49.198;-0.368;2024-01-16T01:05:38;22.88;;;11.50;;
49460;SDS011;35355;49.198;-0.368;2024-01-16T01:08:10;23.38;;;10.93;;
49460;SDS011;35355;49.198;-0.368;2024-01-16T01:10:39;22.13;;;11.00;;
49460;SDS011;35355;49.198;-0.368;2024-01-16T01:13:05;21.00;;;10.55;;
49460;SDS011;35355;49.198;-0.368;2024-01-16T01:15:30;20.38;;;10.88;;
49460;SDS011;35355;49.198;-0.368;2024-01-16T01:17:56;26.02;;;10.82;;
49460;SDS011;35355;49.198;-0.368;2024-01-16T01:20:25;30.02;;;11.40;;
49460;SDS011;35355;49.198;-0.368;2024-01-16T01:22:51;22.05;;;10.73;;
49460;SDS011;35355;49.198;-0.368;2024-01-16T01:25:16;17.55;;;8.98;;
49460;SDS011;35355;49.198;-0.368;2024-01-16T01:27:45;18.73;;;9.88;;
49460;SDS011;35355;49.198;-0.368;2024-01-16T01:30:13;21.75;;;10.93;;
49460;SDS011;35355;49.198;-0.368;2024-01-16T01:32:39;22.02;;;10.95;;
49460;SDS011;35355;49.198;-0.368;2024-01-16T01:35:05;18.23;;;9.75;;
49460;SDS011;35355;49.198;-0.368;2024-01-16T01:37:38;19.90;;;10.45;;
49460;SDS011;35355;49.198;-0.368;2024-01-16T01:40:04;18.58;;;9.57;;
49460;SDS011;35355;49.198;-0.368;2024-01-16T01:42:30;21.20;;;9.75;;
49460;SDS011;35355;49.198;-0.368;2024-01-16T01:44:56;17.95;;;9.68;;
49460;SDS011;35355;49.198;-0.368;2024-01-16T01:47:24;21.05;;;10.57;;
49460;SDS011;35355;49.198;-0.368;2024-01-16T01:49:51;24.33;;;9.52;;
49460;SDS011;35355;49.198;-0.368;2024-01-16T01:52:16;20.40;;;9.20;;
49460;SDS011;35355;49.198;-0.368;2024-01-16T01:54:45;18.65;;;8.43;;
49460;SDS011;35355;49.198;-0.368;2024-01-16T01:57:11;18.48;;;7.75;;
49460;SDS011;35355;49.198;-0.368;2024-01-16T01:59:39;18.13;;;8.43;;
49460;SDS011;35355;49.198;-0.368;2024-01-16T02:02:05;20.70;;;7.85;;
49460;SDS011;35355;49.198;-0.368;2024-01-16T02:04:31;18.45;;;7.85;;
49460;SDS011;35355;49.198;-0.368;2024-01-16T02:06:59;13.27;;;6.55;;
49460;SDS011;35355;49.198;-0.368;2024-01-16T02:09:25;19.88;;;8.65;;
49460;SDS011;35355;49.198;-0.368;2024-01-16T02:11:51;16.80;;;7.40;;
49460;SDS011;35355;49.198;-0.368;2024-01-16T02:14:16;16.63;;;7.20;;
49460;SDS011;35355;49.198;-0.368;2024-01-16T02:16:42;14.38;;;6.53;;
49460;SDS011;35355;49.198;-0.368;2024-01-16T02:19:11;16.98;;;7.25;;
49460;SDS011;35355;49.198;-0.368;2024-01-16T02:21:41;17.50;;;7.38;;
49460;SDS011;35355;49.198;-0.368;2024-01-16T02:24:14;15.15;;;7.45;;
49460;SDS011;35355;49.198;-0.368;2024-01-16T02:26:45;15.38;;;6.60;;
49460;SDS011;35355;49.198;-0.368;2024-01-16T02:29:10;14.88;;;6.72;;
49460;SDS011;35355;49.198;-0.368;2024-01-16T02:31:39;15.13;;;6.45;;
49460;SDS011;35355;49.198;-0.368;2024-01-16T02:34:05;17.98;;;6.55;;
49460;SDS011;35355;49.198;-0.368;2024-01-16T02:36:31;18.73;;;6.97;;
49460;SDS011;35355;49.198;-0.368;2024-01-16T02:39:00;15.55;;;6.80;;
49460;SDS011;35355;49.198;-0.368;2024-01-16T02:41:26;13.95;;;6.65;;
49460;SDS011;35355;49.198;-0.368;2024-01-16T02:43:52;17.05;;;7.20;;
49460;SDS011;35355;49.198;-0.368;2024-01-16T02:46:18;15.13;;;6.90;;
49460;SDS011;35355;49.198;-0.368;2024-01-16T02:48:50;13.23;;;6.60;;
49460;SDS011;35355;49.198;-0.368;2024-01-16T02:51:18;18.63;;;6.57;;
49460;SDS011;35355;49.198;-0.368;2024-01-16T02:53:44;14.57;;;6.15;;
49460;SDS011;35355;49.198;-0.368;2024-01-16T02:56:13;15.30;;;5.75;;
49460;SDS011;35355;49.198;-0.368;2024-01-16T02:58:38;13.45;;;6.55;;
49460;SDS011;35355;49.198;-0.368;2024-01-16T03:01:04;15.50;;;6.55;;
49460;SDS011;35355;49.198;-0.368;2024-01-16T03:03:30;17.80;;;6.80;;
49460;SDS011;35355;49.198;-0.368;2024-01-16T03:05:58;12.73;;;6.50;;
49460;SDS011;35355;49.198;-0.368;2024-01-16T03:08:27;15.45;;;6.38;;
49460;SDS011;35355;49.198;-0.368;2024-01-16T03:10:52;11.25;;;5.78;;
49460;SDS011;35355;49.198;-0.368;2024-01-16T03:13:20;13.00;;;6.40;;
49460;SDS011;35355;49.198;-0.368;2024-01-16T03:15:48;15.10;;;6.65;;
49460;SDS011;35355;49.198;-0.368;2024-01-16T03:18:17;15.32;;;5.90;;
49460;SDS011;35355;49.198;-0.368;2024-01-16T03:20:47;16.30;;;7.78;;
49460;SDS011;35355;49.198;-0.368;2024-01-16T03:23:13;13.82;;;6.05;;
49460;SDS011;35355;49.198;-0.368;2024-01-16T03:25:39;12.68;;;4.97;;
49460;SDS011;35355;49.198;-0.368;2024-01-16T03:28:08;13.27;;;6.78;;
49460;SDS011;35355;49.198;-0.368;2024-01-16T03:30:35;12.98;;;5.90;;
49460;SDS011;35355;49.198;-0.368;2024-01-16T03:33:01;10.82;;;5.60;;
49460;SDS011;35355;49.198;-0.368;2024-01-16T03:35:27;14.32;;;5.90;;
49460;SDS011;35355;49.198;-0.368;2024-01-16T03:37:53;11.60;;;5.38;;
49460;SDS011;35355;49.198;-0.368;2024-01-16T03:40:18;16.15;;;6.05;;
49460;SDS011;35355;49.198;-0.368;2024-01-16T03:42:47;13.02;;;5.93;;
49460;SDS011;35355;49.198;-0.368;2024-01-16T03:45:12;12.43;;;5.47;;
49460;SDS011;35355;49.198;-0.368;2024-01-16T03:47:38;12.10;;;5.60;;
49460;SDS011;35355;49.198;-0.368;2024-01-16T03:50:04;17.10;;;6.85;;
49460;SDS011;35355;49.198;-0.368;2024-01-16T03:52:31;14.60;;;6.03;;
49460;SDS011;35355;49.198;-0.368;2024-01-16T03:54:56;10.30;;;5.63;;
49460;SDS011;35355;49.198;-0.368;2024-01-16T03:57:22;12.95;;;5.55;;
49460;SDS011;35355;49.198;-0.368;2024-01-16T03:59:47;11.02;;;5.40;;
49460;SDS011;35355;49.198;-0.368;2024-01-16T04:02:16;17.55;;;7.20;;
49460;SDS011;35355;49.198;-0.368;2024-01-16T04:04:42;14.50;;;6.28;;
49460;SDS011;35355;49.198;-0.368;2024-01-16T04:07:13;12.07;;;5.68;;
49460;SDS011;35355;49.198;-0.368;2024-01-16T04:09:44;13.18;;;5.28;;
49460;SDS011;35355;49.198;-0.368;2024-01-16T04:12:09;16.42;;;5.75;;
49460;SDS011;35355;49.198;-0.368;2024-01-16T04:14:36;11.85;;;5.53;;
49460;SDS011;35355;49.198;-0.368;2024-01-16T04:17:04;16.23;;;6.35;;
49460;SDS011;35355;49.198;-0.368;2024-01-16T04:19:30;14.40;;;5.38;;
49460;SDS011;35355;49.198;-0.368;2024-01-16T04:22:01;12.10;;;5.95;;
49460;SDS011;35355;49.198;-0.368;2024-01-16T04:24:27;13.75;;;6.20;;
49460;SDS011;35355;49.198;-0.368;2024-01-16T04:26:56;9.90;;;5.30;;
49460;SDS011;35355;49.198;-0.368;2024-01-16T04:29:22;12.82;;;6.05;;
49460;SDS011;35355;49.198;-0.368;2024-01-16T04:31:50;10.82;;;4.55;;
49460;SDS011;35355;49.198;-0.368;2024-01-16T04:34:16;13.27;;;5.15;;
49460;SDS011;35355;49.198;-0.368;2024-01-16T04:36:42;10.20;;;4.88;;
49460;SDS011;35355;49.198;-0.368;2024-01-16T04:39:08;13.45;;;5.55;;
49460;SDS011;35355;49.198;-0.368;2024-01-16T04:41:34;8.15;;;4.75;;
49460;SDS011;35355;49.198;-0.368;2024-01-16T04:44:02;11.50;;;5.53;;
49460;SDS011;35355;49.198;-0.368;2024-01-16T04:46:37;10.55;;;4.82;;
49460;SDS011;35355;49.198;-0.368;2024-01-16T04:49:05;13.50;;;5.35;;
49460;SDS011;35355;49.198;-0.368;2024-01-16T04:51:34;10.45;;;4.18;;
49460;SDS011;35355;49.198;-0.368;2024-01-16T04:54:03;9.15;;;5.40;;
49460;SDS011;35355;49.198;-0.368;2024-01-16T04:56:32;12.43;;;5.75;;
49460;SDS011;35355;49.198;-0.368;2024-01-16T04:58:58;10.68;;;4.93;;
49460;SDS011;35355;49.198;-0.368;2024-01-16T05:01:23;11.10;;;5.68;;
49460;SDS011;35355;49.198;-0.368;2024-01-16T05:03:50;10.25;;;5.03;;
49460;SDS011;35355;49.198;-0.368;2024-01-16T05:06:24;9.30;;;5.03;;
49460;SDS011;35355;49.198;-0.368;2024-01-16T05:08:52;10.38;;;5.53;;
49460;SDS011;35355;49.198;-0.368;2024-01-16T05:11:18;12.55;;;6.32;;
49460;SDS011;35355;49.198;-0.368;2024-01-16T05:13:44;9.73;;;4.20;;
49460;SDS011;35355;49.198;-0.368;2024-01-16T05:16:09;13.50;;;4.78;;
49460;SDS011;35355;49.198;-0.368;2024-01-16T05:18:41;8.55;;;4.63;;
49460;SDS011;35355;49.198;-0.368;2024-01-16T05:21:15;11.05;;;5.30;;
49460;SDS011;35355;49.198;-0.368;2024-01-16T05:23:41;9.77;;;4.70;;
49460;SDS011;35355;49.198;-0.368;2024-01-16T05:26:09;10.63;;;4.97;;
49460;SDS011;35355;49.198;-0.368;2024-01-16T05:28:35;13.55;;;4.97;;
49460;SDS011;35355;49.198;-0.368;2024-01-16T05:31:04;13.75;;;5.13;;
49460;SDS011;35355;49.198;-0.368;2024-01-16T05:33:29;9.80;;;4.82;;
49460;SDS011;35355;49.198;-0.368;2024-01-16T05:35:58;11.30;;;4.63;;
49460;SDS011;35355;49.198;-0.368;2024-01-16T05:38:24;8.70;;;4.82;;
49460;SDS011;35355;49.198;-0.368;2024-01-16T05:40:57;11.18;;;5.03;;
49460;SDS011;35355;49.198;-0.368;2024-01-16T05:45:53;13.10;;;5.68;;
49460;SDS011;35355;49.198;-0.368;2024-01-16T05:48:19;9.68;;;5.05;;
49460;SDS011;35355;49.198;-0.368;2024-01-16T05:50:45;8.32;;;4.82;;
49460;SDS011;35355;49.198;-0.368;2024-01-16T05:53:14;17.42;;;6.55;;
49460;SDS011;35355;49.198;-0.368;2024-01-16T05:55:40;8.40;;;4.50;;
49460;SDS011;35355;49.198;-0.368;2024-01-16T05:58:06;12.10;;;4.95;;
49460;SDS011;35355;49.198;-0.368;2024-01-16T06:00:32;10.68;;;5.32;;
49460;SDS011;35355;49.198;-0.368;2024-01-16T06:02:59;11.20;;;5.07;;
49460;SDS011;35355;49.198;-0.368;2024-01-16T06:05:24;9.40;;;4.93;;
49460;SDS011;35355;49.198;-0.368;2024-01-16T06:07:52;11.05;;;5.13;;
49460;SDS011;35355;49.198;-0.368;2024-01-16T06:10:21;9.57;;;5.18;;
49460;SDS011;35355;49.198;-0.368;2024-01-16T06:12:47;9.70;;;4.10;;
49460;SDS011;35355;49.198;-0.368;2024-01-16T06:15:13;7.80;;;4.05;;
49460;SDS011;35355;49.198;-0.368;2024-01-16T06:17:38;12.05;;;4.55;;
49460;SDS011;35355;49.198;-0.368;2024-01-16T06:20:04;12.32;;;4.63;;
49460;SDS011;35355;49.198;-0.368;2024-01-16T06:22:36;8.90;;;4.57;;
49460;SDS011;35355;49.198;-0.368;2024-01-16T06:25:02;6.28;;;3.85;;
49460;SDS011;35355;49.198;-0.368;2024-01-16T06:27:28;6.88;;;4.30;;
49460;SDS011;35355;49.198;-0.368;2024-01-16T06:29:54;9.48;;;4.95;;
49460;SDS011;35355;49.198;-0.368;2024-01-16T06:32:20;12.23;;;4.93;;
49460;SDS011;35355;49.198;-0.368;2024-01-16T06:34:46;9.50;;;4.88;;
49460;SDS011;35355;49.198;-0.368;2024-01-16T06:37:12;10.25;;;4.60;;
49460;SDS011;35355;49.198;-0.368;2024-01-16T06:39:41;14.63;;;4.90;;
49460;SDS011;35355;49.198;-0.368;2024-01-16T06:42:07;13.05;;;5.28;;
49460;SDS011;35355;49.198;-0.368;2024-01-16T06:44:34;10.73;;;4.63;;
49460;SDS011;35355;49.198;-0.368;2024-01-16T06:47:00;8.80;;;4.53;;
49460;SDS011;35355;49.198;-0.368;2024-01-16T06:49:29;8.85;;;4.93;;
49460;SDS011;35355;49.198;-0.368;2024-01-16T06:51:54;12.68;;;5.45;;
49460;SDS011;35355;49.198;-0.368;2024-01-16T06:54:23;10.48;;;4.90;;
49460;SDS011;35355;49.198;-0.368;2024-01-16T06:56:49;10.98;;;5.00;;
49460;SDS011;35355;49.198;-0.368;2024-01-16T06:59:15;9.07;;;5.05;;
49460;SDS011;35355;49.198;-0.368;2024-01-16T07:01:44;11.73;;;5.35;;
49460;SDS011;35355;49.198;-0.368;2024-01-16T07:04:10;13.43;;;4.47;;
49460;SDS011;35355;49.198;-0.368;2024-01-16T07:06:40;14.48;;;5.32;;
49460;SDS011;35355;49.198;-0.368;2024-01-16T07:09:06;11.60;;;5.55;;
49460;SDS011;35355;49.198;-0.368;2024-01-16T07:11:36;11.15;;;5.13;;
49460;SDS011;35355;49.198;-0.368;2024-01-16T07:14:08;11.20;;;4.60;;
49460;SDS011;35355;49.198;-0.368;2024-01-16T07:16:34;9.10;;;5.13;;
49460;SDS011;35355;49.198;-0.368;2024-01-16T07:19:03;10.35;;;4.18;;
49460;SDS011;35355;49.198;-0.368;2024-01-16T07:21:31;11.20;;;5.32;;
49460;SDS011;35355;49.198;-0.368;2024-01-16T07:24:00;12.70;;;5.90;;
49460;SDS011;35355;49.198;-0.368;2024-01-16T07:26:25;12.68;;;4.78;;
49460;SDS011;35355;49.198;-0.368;2024-01-16T07:28:51;10.68;;;4.80;;
49460;SDS011;35355;49.198;-0.368;2024-01-16T07:31:20;14.55;;;6.78;;
49460;SDS011;35355;49.198;-0.368;2024-01-16T07:33:45;14.63;;;6.47;;
49460;SDS011;35355;49.198;-0.368;2024-01-16T07:36:13;13.60;;;7.05;;
49460;SDS011;35355;49.198;-0.368;2024-01-16T07:38:39;12.02;;;6.13;;
49460;SDS011;35355;49.198;-0.368;2024-01-16T07:41:07;12.85;;;4.97;;
49460;SDS011;35355;49.198;-0.368;2024-01-16T07:43:33;14.60;;;6.00;;
49460;SDS011;35355;49.198;-0.368;2024-01-16T07:45:59;14.55;;;6.75;;
49460;SDS011;35355;49.198;-0.368;2024-01-16T07:48:28;13.45;;;6.18;;
49460;SDS011;35355;49.198;-0.368;2024-01-16T07:50:56;12.38;;;5.65;;
49460;SDS011;35355;49.198;-0.368;2024-01-16T07:53:22;10.38;;;5.28;;
49460;SDS011;35355;49.198;-0.368;2024-01-16T07:55:54;10.05;;;5.63;;
49460;SDS011;35355;49.198;-0.368;2024-01-16T07:58:19;12.35;;;5.72;;
49460;SDS011;35355;49.198;-0.368;2024-01-16T08:00:50;13.25;;;6.03;;
49460;SDS011;35355;49.198;-0.368;2024-01-16T08:03:19;15.45;;;5.95;;
49460;SDS011;35355;49.198;-0.368;2024-01-16T08:05:45;12.73;;;5.88;;
49460;SDS011;35355;49.198;-0.368;2024-01-16T08:08:13;13.40;;;5.97;;
49460;SDS011;35355;49.198;-0.368;2024-01-16T08:10:42;15.98;;;6.60;;
49460;SDS011;35355;49.198;-0.368;2024-01-16T08:13:11;14.48;;;5.70;;
49460;SDS011;35355;49.198;-0.368;2024-01-16T08:15:37;14.55;;;6.65;;
49460;SDS011;35355;49.198;-0.368;2024-01-16T08:18:05;11.20;;;5.60;;
49460;SDS011;35355;49.198;-0.368;2024-01-16T08:20:31;10.27;;;5.32;;
49460;SDS011;35355;49.198;-0.368;2024-01-16T08:23:00;10.98;;;5.18;;
49460;SDS011;35355;49.198;-0.368;2024-01-16T08:25:25;11.82;;;6.03;;
49460;SDS011;35355;49.198;-0.368;2024-01-16T08:27:52;18.63;;;6.60;;
49460;SDS011;35355;49.198;-0.368;2024-01-16T08:30:17;10.23;;;5.68;;
49460;SDS011;35355;49.198;-0.368;2024-01-16T08:32:43;11.85;;;5.60;;
49460;SDS011;35355;49.198;-0.368;2024-01-16T08:35:15;11.23;;;5.43;;
49460;SDS011;35355;49.198;-0.368;2024-01-16T08:37:40;12.63;;;5.70;;
49460;SDS011;35355;49.198;-0.368;2024-01-16T08:40:09;20.15;;;6.00;;
49460;SDS011;35355;49.198;-0.368;2024-01-16T08:42:36;12.18;;;5.43;;
49460;SDS011;35355;49.198;-0.368;2024-01-16T08:45:02;12.65;;;5.72;;
49460;SDS011;35355;49.198;-0.368;2024-01-16T08:47:38;10.93;;;5.80;;
49460;SDS011;35355;49.198;-0.368;2024-01-16T08:50:07;14.55;;;6.07;;
49460;SDS011;35355;49.198;-0.368;2024-01-16T08:52:35;18.90;;;6.88;;
49460;SDS011;35355;49.198;-0.368;2024-01-16T08:55:01;16.80;;;6.80;;
49460;SDS011;35355;49.198;-0.368;2024-01-16T08:57:27;25.67;;;7.05;;
49460;SDS011;35355;49.198;-0.368;2024-01-16T08:59:52;13.60;;;6.68;;
49460;SDS011;35355;49.198;-0.368;2024-01-16T09:02:20;13.45;;;6.50;;
49460;SDS011;35355;49.198;-0.368;2024-01-16T09:04:46;13.55;;;6.28;;
49460;SDS011;35355;49.198;-0.368;2024-01-16T09:07:12;14.45;;;6.30;;
49460;SDS011;35355;49.198;-0.368;2024-01-16T09:09:48;13.38;;;6.82;;
49460;SDS011;35355;49.198;-0.368;2024-01-16T09:12:20;16.33;;;7.17;;
49460;SDS011;35355;49.198;-0.368;2024-01-16T09:14:45;13.65;;;6.07;;
49460;SDS011;35355;49.198;-0.368;2024-01-16T09:17:14;12.50;;;6.10;;
49460;SDS011;35355;49.198;-0.368;2024-01-16T09:19:42;15.68;;;5.53;;
49460;SDS011;35355;49.198;-0.368;2024-01-16T09:22:13;15.38;;;5.63;;
49460;SDS011;35355;49.198;-0.368;2024-01-16T09:24:41;9.13;;;5.60;;
49460;SDS011;35355;49.198;-0.368;2024-01-16T09:27:07;15.00;;;5.25;;
49460;SDS011;35355;49.198;-0.368;2024-01-16T09:29:35;13.23;;;6.28;;
49460;SDS011;35355;49.198;-0.368;2024-01-16T09:32:06;14.95;;;6.95;;
49460;SDS011;35355;49.198;-0.368;2024-01-16T09:34:31;16.17;;;5.90;;
49460;SDS011;35355;49.198;-0.368;2024-01-16T09:36:57;19.23;;;6.53;;
49460;SDS011;35355;49.198;-0.368;2024-01-16T09:39:25;18.17;;;6.35;;
49460;SDS011;35355;49.198;-0.368;2024-01-16T09:41:57;14.95;;;6.65;;
49460;SDS011;35355;49.198;-0.368;2024-01-16T09:44:26;13.48;;;6.40;;
49460;SDS011;35355;49.198;-0.368;2024-01-16T09:46:52;13.55;;;6.38;;
49460;SDS011;35355;49.198;-0.368;2024-01-16T09:49:20;13.80;;;6.75;;
49460;SDS011;35355;49.198;-0.368;2024-01-16T09:51:46;11.20;;;4.85;;
49460;SDS011;35355;49.198;-0.368;2024-01-16T09:54:11;11.45;;;5.47;;
49460;SDS011;35355;49.198;-0.368;2024-01-16T09:56:46;15.93;;;5.82;;
49460;SDS011;35355;49.198;-0.368;2024-01-16T09:59:17;10.85;;;5.20;;
49460;SDS011;35355;49.198;-0.368;2024-01-16T10:01:43;14.02;;;5.35;;
49460;SDS011;35355;49.198;-0.368;2024-01-16T10:04:18;14.52;;;6.00;;
49460;SDS011;35355;49.198;-0.368;2024-01-16T10:06:51;15.60;;;6.15;;
49460;SDS011;35355;49.198;-0.368;2024-01-16T10:09:22;13.45;;;5.18;;
49460;SDS011;35355;49.198;-0.368;2024-01-16T10:11:48;11.68;;;5.53;;
49460;SDS011;35355;49.198;-0.368;2024-01-16T10:14:18;13.85;;;6.22;;
49460;SDS011;35355;49.198;-0.368;2024-01-16T10:16:56;15.20;;;6.13;;
49460;SDS011;35355;49.198;-0.368;2024-01-16T10:19:52;12.93;;;5.78;;
49460;SDS011;35355;49.198;-0.368;2024-01-16T10:22:23;12.55;;;5.65;;
49460;SDS011;35355;49.198;-0.368;2024-01-16T10:25:03;14.30;;;5.75;;
49460;SDS011;35355;49.198;-0.368;2024-01-16T10:27:36;19.23;;;5.88;;
49460;SDS011;35355;49.198;-0.368;2024-01-16T10:30:06;16.13;;;6.45;;
49460;SDS011;35355;49.198;-0.368;2024-01-16T10:32:36;10.10;;;5.30;;
49460;SDS011;35355;49.198;-0.368;2024-01-16T10:35:10;12.50;;;5.63;;
49460;SDS011;35355;49.198;-0.368;2024-01-16T10:37:42;16.73;;;5.95;;
49460;SDS011;35355;49.198;-0.368;2024-01-16T10:40:09;17.75;;;6.28;;
49460;SDS011;35355;49.198;-0.368;2024-01-16T10:42:40;16.52;;;6.85;;
49460;SDS011;35355;49.198;-0.368;2024-01-16T10:45:06;17.02;;;6.55;;
49460;SDS011;35355;49.198;-0.368;2024-01-16T10:47:32;14.52;;;6.20;;
49460;SDS011;35355;49.198;-0.368;2024-01-16T10:50:03;16.65;;;5.93;;
49460;SDS011;35355;49.198;-0.368;2024-01-16T10:52:30;14.80;;;5.28;;
49460;SDS011;35355;49.198;-0.368;2024-01-16T10:54:59;14.40;;;6.10;;
49460;SDS011;35355;49.198;-0.368;2024-01-16T10:57:29;16.00;;;6.30;;
49460;SDS011;35355;49.198;-0.368;2024-01-16T11:00:02;12.40;;;5.32;;
49460;SDS011;35355;49.198;-0.368;2024-01-16T11:02:49;16.77;;;5.32;;
49460;SDS011;35355;49.198;-0.368;2024-01-16T11:05:25;17.00;;;5.10;;
49460;SDS011;35355;49.198;-0.368;2024-01-16T11:07:53;18.33;;;5.50;;
49460;SDS011;35355;49.198;-0.368;2024-01-16T11:10:20;10.27;;;5.13;;
49460;SDS011;35355;49.198;-0.368;2024-01-16T11:12:46;18.40;;;4.28;;
49460;SDS011;35355;49.198;-0.368;2024-01-16T11:15:16;15.10;;;4.40;;
49460;SDS011;35355;49.198;-0.368;2024-01-16T11:17:43;8.88;;;3.65;;
49460;SDS011;35355;49.198;-0.368;2024-01-16T11:20:10;8.95;;;3.78;;
49460;SDS011;35355;49.198;-0.368;2024-01-16T11:22:39;9.82;;;3.92;;
49460;SDS011;35355;49.198;-0.368;2024-01-16T11:25:12;13.82;;;5.70;;
49460;SDS011;35355;49.198;-0.368;2024-01-16T11:27:39;41.10;;;4.88;;
49460;SDS011;35355;49.198;-0.368;2024-01-16T11:30:07;11.15;;;3.50;;
49460;SDS011;35355;49.198;-0.368;2024-01-16T11:32:34;8.45;;;3.22;;
49460;SDS011;35355;49.198;-0.368;2024-01-16T11:35:01;8.32;;;3.30;;
49460;SDS011;35355;49.198;-0.368;2024-01-16T11:37:30;9.32;;;2.42;;
49460;SDS011;35355;49.198;-0.368;2024-01-16T11:42:43;11.80;;;3.05;;
49460;SDS011;35355;49.198;-0.368;2024-01-16T11:50:36;12.85;;;3.25;;
49460;SDS011;35355;49.198;-0.368;2024-01-16T11:53:02;5.95;;;2.35;;
49460;SDS011;35355;49.198;-0.368;2024-01-16T12:00:47;10.50;;;2.92;;
49460;SDS011;35355;49.198;-0.368;2024-01-16T12:03:20;7.20;;;2.83;;
49460;SDS011;35355;49.198;-0.368;2024-01-16T12:05:55;8.32;;;2.72;;
49460;SDS011;35355;49.198;-0.368;2024-01-16T12:08:25;9.88;;;2.92;;
49460;SDS011;35355;49.198;-0.368;2024-01-16T12:10:50;9.00;;;2.20;;
49460;SDS011;35355;49.198;-0.368;2024-01-16T12:13:16;9.38;;;3.60;;
49460;SDS011;35355;49.198;-0.368;2024-01-16T12:15:45;8.50;;;2.92;;
49460;SDS011;35355;49.198;-0.368;2024-01-16T12:18:17;12.32;;;2.42;;
49460;SDS011;35355;49.198;-0.368;2024-01-16T12:20:43;16.73;;;3.80;;
49460;SDS011;35355;49.198;-0.368;2024-01-16T12:23:09;10.82;;;4.57;;
49460;SDS011;35355;49.198;-0.368;2024-01-16T12:25:38;11.77;;;4.00;;
49460;SDS011;35355;49.198;-0.368;2024-01-16T12:28:06;8.20;;;3.22;;
49460;SDS011;35355;49.198;-0.368;2024-01-16T12:30:36;9.48;;;3.03;;
49460;SDS011;35355;49.198;-0.368;2024-01-16T12:33:09;8.63;;;2.58;;
49460;SDS011;35355;49.198;-0.368;2024-01-16T12:35:40;9.00;;;2.78;;
49460;SDS011;35355;49.198;-0.368;2024-01-16T12:38:13;13.50;;;2.23;;
49460;SDS011;35355;49.198;-0.368;2024-01-16T12:40:40;6.93;;;2.30;;
49460;SDS011;35355;49.198;-0.368;2024-01-16T12:43:11;12.27;;;2.10;;
49460;SDS011;35355;49.198;-0.368;2024-01-16T12:45:37;15.13;;;1.70;;
49460;SDS011;35355;49.198;-0.368;2024-01-16T12:48:03;8.85;;;2.03;;
49460;SDS011;35355;49.198;-0.368;2024-01-16T12:50:35;5.90;;;1.50;;
49460;SDS011;35355;49.198;-0.368;2024-01-16T12:53:11;5.80;;;1.42;;
49460;SDS011;35355;49.198;-0.368;2024-01-16T12:55:38;8.77;;;1.90;;
49460;SDS011;35355;49.198;-0.368;2024-01-16T12:58:17;8.82;;;1.25;;
49460;SDS011;35355;49.198;-0.368;2024-01-16T13:00:51;9.70;;;1.70;;
49460;SDS011;35355;49.198;-0.368;2024-01-16T13:03:30;6.63;;;2.22;;
49460;SDS011;35355;49.198;-0.368;2024-01-16T13:05:59;7.18;;;2.97;;
49460;SDS011;35355;49.198;-0.368;2024-01-16T13:08:25;7.15;;;3.15;;
49460;SDS011;35355;49.198;-0.368;2024-01-16T13:11:04;15.10;;;3.30;;
49460;SDS011;35355;49.198;-0.368;2024-01-16T13:13:34;8.93;;;3.10;;
49460;SDS011;35355;49.198;-0.368;2024-01-16T13:16:01;7.43;;;3.08;;
49460;SDS011;35355;49.198;-0.368;2024-01-16T13:18:28;6.80;;;2.80;;
49460;SDS011;35355;49.198;-0.368;2024-01-16T13:20:55;10.65;;;3.00;;
49460;SDS011;35355;49.198;-0.368;2024-01-16T13:23:22;10.40;;;2.75;;
49460;SDS011;35355;49.198;-0.368;2024-01-16T13:25:50;8.55;;;2.58;;
49460;SDS011;35355;49.198;-0.368;2024-01-16T13:28:16;9.38;;;2.85;;
49460;SDS011;35355;49.198;-0.368;2024-01-16T13:30:46;7.57;;;1.77;;
49460;SDS011;35355;49.198;-0.368;2024-01-16T13:33:16;9.32;;;1.50;;
49460;SDS011;35355;49.198;-0.368;2024-01-16T13:35:44;6.07;;;1.45;;
49460;SDS011;35355;49.198;-0.368;2024-01-16T13:38:12;4.13;;;0.85;;
49460;SDS011;35355;49.198;-0.368;2024-01-16T13:40:44;4.68;;;1.83;;
49460;SDS011;35355;49.198;-0.368;2024-01-16T13:43:24;4.95;;;1.55;;
49460;SDS011;35355;49.198;-0.368;2024-01-16T13:46:09;4.13;;;0.70;;
49460;SDS011;35355;49.198;-0.368;2024-01-16T13:48:35;2.70;;;0.75;;
49460;SDS011;35355;49.198;-0.368;2024-01-16T13:51:01;4.53;;;2.05;;
49460;SDS011;35355;49.198;-0.368;2024-01-16T13:53:27;2.85;;;0.43;;
49460;SDS011;35355;49.198;-0.368;2024-01-16T13:55:52;4.20;;;1.08;;
49460;SDS011;35355;49.198;-0.368;2024-01-16T13:58:20;5.75;;;1.55;;
49460;SDS011;35355;49.198;-0.368;2024-01-16T14:00:46;7.68;;;1.10;;
49460;SDS011;35355;49.198;-0.368;2024-01-16T14:03:29;6.47;;;1.48;;
49460;SDS011;35355;49.198;-0.368;2024-01-16T14:05:55;7.45;;;2.63;;
49460;SDS011;35355;49.198;-0.368;2024-01-16T14:08:20;6.82;;;2.08;;
49460;SDS011;35355;49.198;-0.368;2024-01-16T14:10:46;11.60;;;4.25;;
49460;SDS011;35355;49.198;-0.368;2024-01-16T14:13:12;5.95;;;1.42;;
49460;SDS011;35355;49.198;-0.368;2024-01-16T14:15:43;8.57;;;1.90;;
49460;SDS011;35355;49.198;-0.368;2024-01-16T14:18:08;6.32;;;1.77;;
49460;SDS011;35355;49.198;-0.368;2024-01-16T14:20:40;6.57;;;1.63;;
49460;SDS011;35355;49.198;-0.368;2024-01-16T14:23:10;3.13;;;1.00;;
49460;SDS011;35355;49.198;-0.368;2024-01-16T14:25:43;5.32;;;1.20;;
49460;SDS011;35355;49.198;-0.368;2024-01-16T14:28:10;6.72;;;1.23;;
49460;SDS011;35355;49.198;-0.368;2024-01-16T14:30:37;5.95;;;1.63;;
49460;SDS011;35355;49.198;-0.368;2024-01-16T14:33:03;8.05;;;2.20;;
49460;SDS011;35355;49.198;-0.368;2024-01-16T14:35:31;5.55;;;1.02;;
49460;SDS011;35355;49.198;-0.368;2024-01-16T14:37:58;3.58;;;1.05;;
49460;SDS011;35355;49.198;-0.368;2024-01-16T14:40:23;5.88;;;1.45;;
49460;SDS011;35355;49.198;-0.368;2024-01-16T14:42:59;3.58;;;0.80;;
49460;SDS011;35355;49.198;-0.368;2024-01-16T14:45:30;5.45;;;1.23;;